createdAt,value
2023-04-18T00:01:10.379Z,7.3
2023-04-18T00:03:17.300Z,7.3
2023-04-18T00:05:20.920Z,7.3
2023-04-18T00:09:48.360Z,7.2
2023-04-18T00:11:52.159Z,7.2
2023-04-18T00:13:55.965Z,7.1
2023-04-18T00:16:02.607Z,7
2023-04-18T00:18:06.484Z,7
2023-04-18T00:20:10.196Z,6.9
2023-04-18T00:22:14.011Z,7
2023-04-18T00:24:17.896Z,6.9
2023-04-18T00:26:21.724Z,6.9
2023-04-18T00:28:25.496Z,6.8
2023-04-18T00:32:36.116Z,6.7
2023-04-18T00:36:43.537Z,6.7
2023-04-18T00:38:47.303Z,6.7
2023-04-18T00:40:51.143Z,6.7
2023-04-18T00:45:01.572Z,6.5
2023-04-18T01:01:34.955Z,6.4
2023-04-18T01:03:38.838Z,6.3
2023-04-18T01:04:42.080Z,6.3
2023-04-18T01:06:45.804Z,6.3
2023-04-18T01:08:49.550Z,6.3
2023-04-18T01:10:53.381Z,6.3
2023-04-18T01:12:59.982Z,6.2
2023-04-18T01:15:03.760Z,6.2
2023-04-18T01:17:07.529Z,6.2
2023-04-18T01:19:11.350Z,6.2
2023-04-18T01:25:22.706Z,6.2
2023-04-18T01:27:29.391Z,6.2
2023-04-18T01:31:36.990Z,6.2
2023-04-18T01:33:40.795Z,6.1
2023-04-18T01:41:59.007Z,6.2
2023-04-18T01:44:02.784Z,6.2
2023-04-18T01:46:06.695Z,6.3
2023-04-18T01:48:10.469Z,6.2
2023-04-18T01:50:14.217Z,6.2
2023-04-18T01:52:18.031Z,6.2
2023-04-18T01:54:21.818Z,6.1
2023-04-18T01:56:28.401Z,6.1
2023-04-18T01:58:32.341Z,6.1
2023-04-18T02:00:36.123Z,6
2023-04-18T02:01:39.429Z,6
2023-04-18T02:03:43.485Z,6
2023-04-18T02:05:47.016Z,5.9
2023-04-18T02:07:50.894Z,5.9
2023-04-18T02:24:27.102Z,5.7
2023-04-18T02:28:34.764Z,5.6
2023-04-18T02:30:38.537Z,5.6
2023-04-18T02:32:42.353Z,5.6
2023-04-18T02:34:46.091Z,5.6
2023-04-18T02:36:49.824Z,5.5
2023-04-18T02:38:56.418Z,5.5
2023-04-18T02:41:00.187Z,5.4
2023-04-18T02:45:07.706Z,5.4
2023-04-18T02:49:15.350Z,5.3
2023-04-18T02:51:19.110Z,5.3
2023-04-18T02:55:29.523Z,5.3
2023-04-18T02:58:36.585Z,5.2
2023-04-18T03:00:40.477Z,5.2
2023-04-18T03:04:47.897Z,5.2
2023-04-18T03:06:54.532Z,5.3
2023-04-18T03:08:58.304Z,5.3
2023-04-18T03:13:05.873Z,5.3
2023-04-18T03:15:09.650Z,5.4
2023-04-18T03:17:13.422Z,5.4
2023-04-18T03:19:17.173Z,5.4
2023-04-18T03:21:23.785Z,5.4
2023-04-18T03:27:35.063Z,5.4
2023-04-18T03:29:38.809Z,5.4
2023-04-18T03:31:42.690Z,5.3
2023-04-18T03:33:46.368Z,5.3
2023-04-18T03:35:52.939Z,5.3
2023-04-18T03:37:56.709Z,5.3
2023-04-18T03:40:00.493Z,5.3
2023-04-18T03:42:04.256Z,5.3
2023-04-18T03:44:08.016Z,5.3
2023-04-18T03:50:22.143Z,5.4
2023-04-18T03:52:27.022Z,5.5
2023-04-18T03:56:59.296Z,5.5
2023-04-18T03:59:03.073Z,5.5
2023-04-18T04:01:08.657Z,5.6
2023-04-18T04:03:13.626Z,5.6
2023-04-18T04:05:17.199Z,5.6
2023-04-18T04:07:21.013Z,5.6
2023-04-18T04:09:24.790Z,5.6
2023-04-18T04:11:28.553Z,5.6
2023-04-18T04:13:32.335Z,5.6
2023-04-18T04:15:36.114Z,5.6
2023-04-18T04:17:42.729Z,5.6
2023-04-18T04:19:46.502Z,5.7
2023-04-18T04:23:54.086Z,5.6
2023-04-18T04:25:57.826Z,5.6
2023-04-18T04:28:01.608Z,5.7
2023-04-18T04:30:05.381Z,5.7
2023-04-18T04:32:12.022Z,5.7
2023-04-18T04:34:15.967Z,5.7
2023-04-18T04:36:19.558Z,5.7
2023-04-18T04:38:23.358Z,5.7
2023-04-18T04:40:27.139Z,5.7
2023-04-18T04:42:30.904Z,5.7
2023-04-18T04:44:34.757Z,5.8
2023-04-18T04:48:45.101Z,5.7
2023-04-18T04:50:48.881Z,5.8
2023-04-18T04:51:52.157Z,5.8
2023-04-18T04:53:55.947Z,5.8
2023-04-18T04:55:59.746Z,5.7
2023-04-18T05:00:10.248Z,5.8
2023-04-18T05:04:18.556Z,5.8
2023-04-18T05:06:21.645Z,5.9
2023-04-18T05:08:25.429Z,5.8
2023-04-18T05:10:29.212Z,5.9
2023-04-18T05:14:39.603Z,5.9
2023-04-18T05:16:43.449Z,5.9
2023-04-18T05:18:47.183Z,5.9
2023-04-18T05:20:52.483Z,5.9
2023-04-18T05:22:56.219Z,6
2023-04-18T05:24:59.999Z,6
2023-04-18T05:27:03.785Z,6
2023-04-18T05:29:10.400Z,6.1
2023-04-18T05:31:14.223Z,6.1
2023-04-18T05:35:21.793Z,6.2
2023-04-18T05:37:25.576Z,6.2
2023-04-18T05:41:33.196Z,6.3
2023-04-18T05:45:43.808Z,6.4
2023-04-18T05:47:47.449Z,6.5
2023-04-18T05:48:50.722Z,6.5
2023-04-18T05:52:58.324Z,6.6
2023-04-18T05:55:02.152Z,6.6
2023-04-18T05:57:08.742Z,6.6
2023-04-18T06:01:16.360Z,6.6
2023-04-18T06:05:24.242Z,6.7
2023-04-18T06:07:27.779Z,6.9
2023-04-18T06:09:31.585Z,7
2023-04-18T06:11:38.294Z,6.9
2023-04-18T06:13:42.030Z,6.9
2023-04-18T06:15:45.869Z,7.1
2023-04-18T06:17:49.729Z,7.2
2023-04-18T06:19:53.473Z,7.2
2023-04-18T06:21:57.317Z,7.3
2023-04-18T06:26:07.778Z,7.9
2023-04-18T06:28:11.586Z,7.8
2023-04-18T06:30:15.411Z,8
2023-04-18T06:32:19.255Z,8
2023-04-18T06:34:23.038Z,7.8
2023-04-18T06:36:26.891Z,7.9
2023-04-18T06:38:30.697Z,7.9
2023-04-18T06:40:37.383Z,7.8
2023-04-18T06:42:41.214Z,7.6
2023-04-18T06:44:45.030Z,7.4
2023-04-18T06:45:48.448Z,7.5
2023-04-18T06:47:52.250Z,7.5
2023-04-18T06:49:56.018Z,7.4
2023-04-18T06:51:59.883Z,7.5
2023-04-18T06:54:06.527Z,7.4
2023-04-18T06:58:14.201Z,7.6
2023-04-18T07:00:18.063Z,7.7
2023-04-18T07:02:21.945Z,8
2023-04-18T07:06:29.562Z,8.4
2023-04-18T07:10:40.078Z,8.7
2023-04-18T07:12:43.954Z,8.9
2023-04-18T07:14:47.752Z,9.1
2023-04-18T07:16:51.645Z,8.8
2023-04-18T07:18:55.440Z,8.9
2023-04-18T07:25:09.821Z,8.9
2023-04-18T07:27:13.714Z,9
2023-04-18T07:31:21.473Z,11.2
2023-04-18T07:33:25.266Z,12.3
2023-04-18T07:37:35.834Z,11.9
2023-04-18T07:39:39.726Z,11.9
2023-04-18T07:41:43.608Z,12.8
2023-04-18T07:44:13.453Z,10.8
2023-04-18T07:48:20.997Z,10.3
2023-04-18T07:50:27.724Z,9.5
2023-04-18T07:52:31.600Z,9.6
2023-04-18T07:54:35.499Z,9.4
2023-04-18T07:56:39.387Z,9.9
2023-04-18T07:58:43.311Z,10
2023-04-18T08:00:47.214Z,9.4
2023-04-18T08:04:58.071Z,9
2023-04-18T08:07:01.695Z,9
2023-04-18T08:09:05.616Z,9.1
2023-04-18T08:11:09.473Z,8.9
2023-04-18T08:13:13.369Z,8.9
2023-04-18T08:15:17.271Z,8.8
2023-04-18T08:17:21.198Z,8.9
2023-04-18T08:19:27.873Z,9.1
2023-04-18T08:25:39.553Z,9
2023-04-18T08:27:43.404Z,8.9
2023-04-18T08:33:57.868Z,9.2
2023-04-18T08:36:01.744Z,9.1
2023-04-18T08:38:05.623Z,9.2
2023-04-18T08:39:08.966Z,9.3
2023-04-18T08:41:12.821Z,9.5
2023-04-18T08:43:16.710Z,9.7
2023-04-18T08:45:20.620Z,9.5
2023-04-18T08:47:27.314Z,9.5
2023-04-18T08:49:31.200Z,9.7
2023-04-18T08:51:35.063Z,9.8
2023-04-18T08:53:38.950Z,9.7
2023-04-18T09:01:57.381Z,9.9
2023-04-18T09:08:08.960Z,10.3
2023-04-18T09:10:12.865Z,9.9
2023-04-18T09:12:16.766Z,9.7
2023-04-18T09:14:20.621Z,9.8
2023-04-18T09:20:35.342Z,9.7
2023-04-18T09:22:40.019Z,10
2023-04-18T09:30:57.418Z,10.2
2023-04-18T09:35:05.218Z,10.3
2023-04-18T09:36:08.512Z,10.3
2023-04-18T09:44:26.892Z,10.8
2023-04-18T09:46:30.886Z,10.8
2023-04-18T09:48:34.697Z,11
2023-04-18T09:52:42.503Z,10.8
2023-04-18T09:54:48.148Z,11
2023-04-18T09:58:56.997Z,11.3
2023-04-18T10:01:00.884Z,11.5
2023-04-18T10:05:08.715Z,11.3
2023-04-18T10:07:12.585Z,11.2
2023-04-18T10:09:16.702Z,11
2023-04-18T10:11:20.408Z,11
2023-04-18T10:15:31.131Z,10.7
2023-04-18T10:17:34.988Z,10.7
2023-04-18T10:21:42.770Z,11
2023-04-18T10:23:46.686Z,10.9
2023-04-18T10:25:50.606Z,10.8
2023-04-18T10:30:01.271Z,11.5
2023-04-18T10:32:05.137Z,11.4
2023-04-18T10:35:12.404Z,11.4
2023-04-18T10:37:16.322Z,11.5
2023-04-18T10:39:20.317Z,11.9
2023-04-18T10:41:26.925Z,11.5
2023-04-18T10:43:30.848Z,11.5
2023-04-18T10:45:34.775Z,11.5
2023-04-18T10:47:38.754Z,11.5
2023-04-18T10:49:42.595Z,11.6
2023-04-18T10:51:46.499Z,11.7
2023-04-18T10:53:50.397Z,11.6
2023-04-18T11:00:04.980Z,12.2
2023-04-18T11:02:08.897Z,12.2
2023-04-18T11:08:20.615Z,12.3
2023-04-18T11:10:27.346Z,11.7
2023-04-18T11:12:31.299Z,11.5
2023-04-18T11:14:35.178Z,11.6
2023-04-18T11:16:39.160Z,11.6
2023-04-18T11:22:52.308Z,12.3
2023-04-18T11:24:59.035Z,13.2
2023-04-18T11:31:36.462Z,13.2
2023-04-18T11:39:54.957Z,12.8
2023-04-18T11:41:58.860Z,12.8
2023-04-18T11:46:06.778Z,13.2
2023-04-18T11:48:10.630Z,13.2
2023-04-18T11:50:14.562Z,13.1
2023-04-18T11:52:21.273Z,13
2023-04-18T11:54:25.198Z,12.9
2023-04-18T11:56:29.122Z,12.5
2023-04-18T11:58:33.096Z,12.3
2023-04-18T12:04:44.966Z,12.1
2023-04-18T12:06:51.576Z,12
2023-04-18T12:08:55.429Z,12.1
2023-04-18T12:10:59.367Z,12.3
2023-04-18T12:15:07.213Z,12.4
2023-04-18T12:17:11.103Z,12.3
2023-04-18T12:19:14.990Z,12.3
2023-04-18T12:26:32.927Z,12.3
2023-04-18T12:28:36.847Z,12.3
2023-04-18T12:30:40.765Z,12.4
2023-04-18T12:32:44.856Z,12.5
2023-04-18T12:34:51.402Z,12.3
2023-04-18T12:36:55.330Z,12.2
2023-04-18T12:38:59.219Z,12.3
2023-04-18T12:41:03.150Z,12.4
2023-04-18T12:43:07.028Z,12.4
2023-04-18T12:45:10.929Z,12.3
2023-04-18T12:47:14.841Z,12.3
2023-04-18T12:49:21.577Z,12.7
2023-04-18T12:51:25.498Z,12.6
2023-04-18T12:53:29.412Z,12.7
2023-04-18T12:55:33.319Z,12.7
2023-04-18T12:57:37.221Z,12.9
2023-04-18T13:10:03.540Z,15.4
2023-04-18T13:14:11.407Z,14.3
2023-04-18T13:16:15.310Z,13.6
2023-04-18T13:18:22.013Z,13.3
2023-04-18T13:20:25.921Z,13.3
2023-04-18T13:22:29.842Z,13.2
2023-04-18T13:23:33.225Z,13.3
2023-04-18T13:27:41.819Z,15.5
2023-04-18T13:29:44.977Z,16.1
2023-04-18T13:31:53.555Z,14.6
2023-04-18T14:02:56.266Z,13.9
2023-04-18T14:05:00.497Z,13.9
2023-04-18T14:07:04.038Z,14
2023-04-18T14:11:11.878Z,14.3
2023-04-18T14:13:15.797Z,14.5
2023-04-18T14:17:26.481Z,14.6
2023-04-18T14:20:33.780Z,14.9
2023-04-18T14:22:37.669Z,15.2
2023-04-18T14:24:41.604Z,15.2
2023-04-18T14:26:45.536Z,14.8
2023-04-18T14:28:52.296Z,15
2023-04-18T14:33:00.137Z,15.3
2023-04-18T14:35:04.055Z,15.3
2023-04-18T14:37:07.962Z,14.7
2023-04-18T14:39:11.994Z,14.4
2023-04-18T14:41:15.797Z,14.4
2023-04-18T14:43:22.545Z,14.5
2023-04-18T14:45:26.487Z,14.5
2023-04-18T14:47:30.452Z,14.3
2023-04-18T14:49:34.307Z,14.1
2023-04-18T14:51:38.245Z,14.2
2023-04-18T14:53:42.154Z,14.1
2023-04-18T14:55:46.079Z,14.2
2023-04-18T14:57:52.817Z,14.8
2023-04-18T14:59:56.736Z,14.8
2023-04-18T15:02:00.718Z,14.8
2023-04-18T15:04:04.739Z,15
2023-04-18T15:06:08.486Z,15.2
2023-04-18T15:08:12.415Z,15.4
2023-04-18T15:10:16.343Z,15.5
2023-04-18T15:14:27.011Z,15.5
2023-04-18T15:16:30.949Z,15.4
2023-04-18T15:19:00.527Z,15.1
2023-04-18T15:21:04.414Z,15.2
2023-04-18T15:23:08.363Z,15.4
2023-04-18T15:25:15.109Z,15.6
2023-04-18T15:27:19.022Z,15.5
2023-04-18T15:29:22.940Z,15.5
2023-04-18T15:31:26.893Z,15.4
2023-04-18T15:33:30.784Z,15.3
2023-04-18T15:37:38.654Z,15.4
2023-04-18T15:39:45.372Z,15.7
2023-04-18T15:41:49.310Z,15.7
2023-04-18T15:43:53.208Z,15.8
2023-04-18T15:45:57.297Z,15.8
2023-04-18T15:48:01.104Z,15.4
2023-04-18T15:50:05.020Z,15.2
2023-04-18T15:52:08.927Z,15
2023-04-18T15:54:15.931Z,14.7
2023-04-18T15:56:19.573Z,14.7
2023-04-18T16:00:27.402Z,15.3
2023-04-18T16:02:31.392Z,15.4
2023-04-18T16:06:39.165Z,14.9
2023-04-18T16:10:49.846Z,14.6
2023-04-18T16:12:53.764Z,14.6
2023-04-18T16:13:57.138Z,14.7
2023-04-18T16:16:01.104Z,14.6
2023-04-18T16:18:05.034Z,14.7
2023-04-18T16:20:08.909Z,14.6
2023-04-18T16:22:15.660Z,14.5
2023-04-18T16:24:19.603Z,14.4
2023-04-18T16:26:23.491Z,14.3
2023-04-18T16:28:27.404Z,14.2
2023-04-18T16:30:31.380Z,14.1
2023-04-18T16:32:35.265Z,14.1
2023-04-18T16:34:39.153Z,14.2
2023-04-18T16:36:45.907Z,14.4
2023-04-18T16:38:49.825Z,14.4
2023-04-18T16:40:53.753Z,14.4
2023-04-18T16:42:57.675Z,14.6
2023-04-18T16:47:05.612Z,14.8
2023-04-18T16:49:09.423Z,14.9
2023-04-18T16:51:16.152Z,14.8
2023-04-18T16:53:20.093Z,14.7
2023-04-18T16:55:23.993Z,14.5
2023-04-18T16:59:31.829Z,14.5
2023-04-18T17:01:35.824Z,14.7
2023-04-18T17:03:39.911Z,14.7
2023-04-18T17:05:46.415Z,14.9
2023-04-18T17:07:50.332Z,14.8
2023-04-18T17:09:54.244Z,15.1
2023-04-18T17:10:57.618Z,15.3
2023-04-18T17:13:01.584Z,15.2
2023-04-18T17:17:10.852Z,15.1
2023-04-18T17:19:17.588Z,15.2
2023-04-18T17:21:21.501Z,15.3
2023-04-18T17:23:25.444Z,15.4
2023-04-18T17:25:29.363Z,15.3
2023-04-18T17:27:33.281Z,15.2
2023-04-18T17:29:37.201Z,15
2023-04-18T17:31:41.174Z,15.1
2023-04-18T17:33:47.853Z,15.2
2023-04-18T17:37:55.728Z,14.6
2023-04-18T17:39:59.603Z,14.3
2023-04-18T17:42:03.563Z,14.1
2023-04-18T17:44:07.493Z,14
2023-04-18T17:52:25.977Z,13.8
2023-04-18T17:56:33.799Z,13.7
2023-04-18T17:58:37.857Z,13.6
2023-04-18T18:00:41.637Z,13.5
2023-04-18T18:02:48.493Z,13.5
2023-04-18T18:04:52.270Z,13.5
2023-04-18T18:06:56.227Z,13.4
2023-04-18T18:10:03.470Z,13.4
2023-04-18T18:12:07.384Z,13.4
2023-04-18T18:14:11.322Z,13.3
2023-04-18T18:16:18.047Z,13.3
2023-04-18T18:20:25.863Z,13.2
2023-04-18T18:22:29.765Z,13.1
2023-04-18T18:24:33.670Z,13
2023-04-18T18:26:37.588Z,12.9
2023-04-18T18:28:41.473Z,12.9
2023-04-18T18:30:48.313Z,12.8
2023-04-18T18:32:52.211Z,12.8
2023-04-18T18:34:56.047Z,12.7
2023-04-18T18:36:59.944Z,12.7
2023-04-18T18:39:03.845Z,12.6
2023-04-18T18:41:07.765Z,12.5
2023-04-18T18:43:11.690Z,12.5
2023-04-18T18:45:18.419Z,12.3
2023-04-18T18:47:22.305Z,12.3
2023-04-18T18:59:48.511Z,11.8
2023-04-18T19:03:56.474Z,11.8
2023-04-18T19:06:25.881Z,11.6
2023-04-18T19:08:29.780Z,11.6
2023-04-18T19:10:33.737Z,11.6
2023-04-18T19:12:40.387Z,11.5
2023-04-18T19:14:44.307Z,11.4
2023-04-18T19:16:48.235Z,11.4
2023-04-18T19:18:52.095Z,11.4
2023-04-18T19:20:56.127Z,11.3
2023-04-18T19:22:59.887Z,11.2
2023-04-18T19:25:03.801Z,11.2
2023-04-18T19:27:10.523Z,11.2
2023-04-18T19:29:14.846Z,11.1
2023-04-18T19:31:18.349Z,11.1
2023-04-18T19:35:26.106Z,11
2023-04-18T19:37:30.005Z,11
2023-04-18T19:39:33.920Z,11
2023-04-18T19:41:40.623Z,10.9
2023-04-18T19:43:44.523Z,10.9
2023-04-18T19:47:52.324Z,10.8
2023-04-18T19:49:56.192Z,10.7
2023-04-18T19:52:00.108Z,10.7
2023-04-18T19:54:03.974Z,10.7
2023-04-18T19:58:14.555Z,10.6
2023-04-18T20:00:18.460Z,10.6
2023-04-18T20:09:40.243Z,10.5
2023-04-18T20:13:47.962Z,10.5
2023-04-18T20:24:10.206Z,10.1
2023-04-18T20:32:25.837Z,10
2023-04-18T20:36:33.449Z,10
2023-04-18T20:38:40.174Z,9.9
2023-04-18T20:57:17.852Z,9.7
2023-04-18T20:58:21.183Z,9.7
2023-04-18T21:00:25.059Z,9.7
2023-04-18T21:06:39.475Z,9.5
2023-04-18T21:16:58.797Z,9.5
2023-04-18T21:19:02.684Z,9.4
2023-04-18T21:21:09.308Z,9.3
2023-04-18T21:23:13.193Z,9.3
2023-04-18T21:25:17.052Z,9.3
2023-04-18T21:29:24.765Z,9.3
2023-04-18T21:31:28.697Z,9.2
2023-04-18T21:35:39.157Z,9.2
2023-04-18T21:37:42.992Z,9.2
2023-04-18T21:39:46.870Z,9.1
2023-04-18T21:41:50.821Z,9
2023-04-18T21:43:54.668Z,9.1
2023-04-18T21:45:58.525Z,9.1
2023-04-18T21:48:02.435Z,9
2023-04-18T21:50:09.017Z,8.9
2023-04-18T21:52:12.848Z,8.9
2023-04-18T21:54:16.834Z,8.9
2023-04-18T21:55:20.042Z,8.9
2023-04-18T21:59:27.726Z,8.9
2023-04-18T22:11:53.600Z,8.8
2023-04-18T22:13:57.455Z,8.8
2023-04-18T22:16:01.266Z,8.8
2023-04-18T22:18:08.010Z,8.7
2023-04-18T22:20:11.797Z,8.7
2023-04-18T22:22:15.638Z,8.7
2023-04-18T22:24:19.470Z,8.6
2023-04-18T22:26:23.338Z,8.6
2023-04-18T22:28:27.159Z,8.6
2023-04-18T22:30:31.015Z,8.6
2023-04-18T22:34:41.480Z,8.5
2023-04-18T22:36:45.343Z,8.5
2023-04-18T22:47:07.296Z,8.4
2023-04-18T22:49:11.148Z,8.4
2023-04-18T22:51:15.019Z,8.4
2023-04-18T22:53:44.644Z,8.5
2023-04-18T22:55:48.473Z,8.5
2023-04-18T22:57:52.326Z,8.5
2023-04-18T22:59:59.358Z,8.6
2023-04-18T23:02:02.940Z,8.5
2023-04-18T23:04:06.889Z,8.5
2023-04-18T23:06:10.483Z,8.5
2023-04-18T23:08:14.364Z,8.5
2023-04-18T23:10:18.324Z,8.4
2023-04-18T23:12:23.503Z,8.4
2023-04-18T23:14:30.106Z,8.4
2023-04-18T23:16:34.027Z,8.3
2023-04-18T23:18:37.814Z,8.3
2023-04-18T23:20:41.632Z,8.3
2023-04-18T23:22:45.469Z,8.2
2023-04-18T23:24:49.317Z,8.2
2023-04-18T23:26:53.139Z,8.1
2023-04-18T23:28:59.842Z,8.1
2023-04-18T23:31:03.674Z,8.1
2023-04-18T23:33:07.525Z,8.1
2023-04-18T23:39:18.990Z,8
2023-04-18T23:41:22.814Z,7.9
2023-04-18T23:45:33.325Z,7.8
2023-04-18T23:47:37.180Z,7.8
2023-04-18T23:48:40.493Z,7.8
2023-04-18T23:50:44.323Z,7.8
2023-04-18T23:52:48.143Z,7.7
2023-04-18T23:54:51.983Z,7.7
2023-04-18T23:56:58.714Z,7.7
2023-04-18T23:59:02.537Z,7.7
